Time,TemperatureF,DewpointF,PressureIn,WindDirection,WindDirectionDegrees,WindSpeedMPH,WindSpeedGustMPH,Humidity,HourlyPrecipIn,Conditions,Clouds,dailyrainin,SoftwareType,DateUTC
2013-03-28 00:06:00,51.1,49.0,30.00,NNE,17,0.0,2.0,93,0.00,,,0.00,weatherlink.com 1.10,2013-03-28 07:06:00,
2013-03-28 00:36:00,51.0,49.0,30.01,NNE,17,1.0,2.0,94,0.00,,,0.00,weatherlink.com 1.10,2013-03-28 07:36:00,
2013-03-28 00:51:00,50.8,49.0,30.01,NNE,17,0.0,1.0,94,0.00,,,0.00,weatherlink.com 1.10,2013-03-28 07:51:00,
2013-03-28 01:06:00,50.8,49.0,30.01,NNE,17,0.0,0.0,94,0.00,,,0.00,weatherlink.com 1.10,2013-03-28 08:06:00,
2013-03-28 01:21:00,50.8,49.0,30.01,NNE,17,0.0,0.0,94,0.00,,,0.00,weatherlink.com 1.10,2013-03-28 08:21:00,
2013-03-28 01:36:00,50.7,49.0,30.01,NNE,17,0.0,0.0,94,0.00,,,0.00,weatherlink.com 1.10,2013-03-28 08:36:00,
2013-03-28 01:51:00,50.6,49.0,30.01,NNE,17,0.0,1.0,94,0.00,,,0.00,weatherlink.com 1.10,2013-03-28 08:51:00,
2013-03-28 02:06:00,50.6,49.0,30.01,NNE,17,0.0,1.0,94,0.00,,,0.00,weatherlink.com 1.10,2013-03-28 09:06:00,
2013-03-28 02:21:00,50.5,49.0,30.01,NNE,17,0.0,0.0,94,0.00,,,0.00,weatherlink.com 1.10,2013-03-28 09:21:00,
2013-03-28 02:37:00,50.5,49.0,30.01,East,88,2.0,3.0,94,0.00,,,0.00,weatherlink.com 1.10,2013-03-28 09:37:00,
2013-03-28 02:51:00,50.8,49.0,30.01,ESE,117,0.0,1.0,94,0.00,,,0.00,weatherlink.com 1.10,2013-03-28 09:51:00,
2013-03-28 03:06:00,50.5,49.0,30.01,ESE,114,1.0,5.0,94,0.00,,,0.00,weatherlink.com 1.10,2013-03-28 10:06:00,
2013-03-28 03:21:00,51.3,49.0,30.01,SE,129,5.0,6.0,91,0.00,,,0.00,weatherlink.com 1.10,2013-03-28 10:21:00,
2013-03-28 03:36:00,51.3,49.0,30.00,SSE,149,1.0,5.0,91,0.00,,,0.00,weatherlink.com 1.10,2013-03-28 10:36:00,
2013-03-28 03:51:00,51.0,49.0,30.00,East,91,0.0,2.0,93,0.00,,,0.00,weatherlink.com 1.10,2013-03-28 10:51:00,
2013-03-28 04:07:00,50.6,49.0,30.00,SE,144,1.0,4.0,93,0.00,,,0.00,weatherlink.com 1.10,2013-03-28 11:07:00,
2013-03-28 04:22:00,50.6,49.0,30.00,SSE,148,0.0,3.0,93,0.00,,,0.00,weatherlink.com 1.10,2013-03-28 11:22:00,
2013-03-28 04:37:00,50.1,49.0,30.00,SSW,200,0.0,1.0,94,0.00,,,0.00,weatherlink.com 1.10,2013-03-28 11:37:00,
2013-03-28 04:52:00,49.8,49.0,30.00,SSW,200,0.0,2.0,95,0.00,,,0.00,weatherlink.com 1.10,2013-03-28 11:52:00,
2013-03-28 05:07:00,49.7,48.0,30.00,ENE,74,0.0,3.0,95,0.00,,,0.00,weatherlink.com 1.10,2013-03-28 12:07:00,
2013-03-28 05:22:00,49.4,48.0,30.00,SE,135,1.0,2.0,96,0.00,,,0.00,weatherlink.com 1.10,2013-03-28 12:22:00,
2013-03-28 05:37:00,49.5,48.0,30.00,ESE,103,3.0,3.0,95,0.00,,,0.00,weatherlink.com 1.10,2013-03-28 12:37:00,
2013-03-28 05:52:00,49.9,48.0,30.00,East,93,1.0,2.0,94,0.00,,,0.00,weatherlink.com 1.10,2013-03-28 12:52:00,
2013-03-28 06:07:00,49.7,48.0,30.00,ENE,78,1.0,4.0,94,0.00,,,0.00,weatherlink.com 1.10,2013-03-28 13:07:00,
2013-03-28 06:22:00,49.6,48.0,30.01,ENE,74,2.0,4.0,95,0.00,,,0.00,weatherlink.com 1.10,2013-03-28 13:22:00,
2013-03-28 06:37:00,49.8,48.0,30.01,East,82,1.0,4.0,94,0.00,,,0.00,weatherlink.com 1.10,2013-03-28 13:37:00,
2013-03-28 06:52:00,49.9,48.0,30.01,East,89,0.0,1.0,94,0.00,,,0.00,weatherlink.com 1.10,2013-03-28 13:52:00,
2013-03-28 07:07:00,49.7,48.0,30.02,East,89,0.0,2.0,95,0.00,,,0.00,weatherlink.com 1.10,2013-03-28 14:07:00,
2013-03-28 07:22:00,49.4,48.0,30.02,ESE,102,0.0,2.0,96,0.00,,,0.00,weatherlink.com 1.10,2013-03-28 14:22:00,
2013-03-28 07:37:00,49.8,49.0,30.03,East,88,1.0,3.0,95,0.00,,,0.00,weatherlink.com 1.10,2013-03-28 14:37:00,
2013-03-28 08:07:00,50.9,48.0,30.04,South,172,1.0,5.0,91,0.00,,,0.00,weatherlink.com 1.10,2013-03-28 15:07:00,
2013-03-28 08:22:00,51.3,49.0,30.04,SE,142,1.0,3.0,90,0.00,,,0.00,weatherlink.com 1.10,2013-03-28 15:22:00,
2013-03-28 08:37:00,51.8,49.0,30.05,SW,221,1.0,5.0,91,0.00,,,0.00,weatherlink.com 1.10,2013-03-28 15:37:00,
2013-03-28 08:52:00,51.9,49.0,30.05,SE,145,2.0,3.0,91,0.00,,,0.00,weatherlink.com 1.10,2013-03-28 15:52:00,
2013-03-28 09:07:00,52.6,50.0,30.05,SW,223,2.0,3.0,92,0.00,,,0.00,weatherlink.com 1.10,2013-03-28 16:07:00,
2013-03-28 09:22:00,52.9,50.0,30.05,SE,134,3.0,6.0,89,0.00,,,0.00,weatherlink.com 1.10,2013-03-28 16:22:00,
2013-03-28 09:37:00,54.1,50.0,30.05,SSE,161,1.0,4.0,86,0.00,,,0.00,weatherlink.com 1.10,2013-03-28 16:37:00,
2013-03-28 09:52:00,55.4,51.0,30.05,West,264,2.0,3.0,86,0.00,,,0.00,weatherlink.com 1.10,2013-03-28 16:52:00,
2013-03-28 10:07:00,56.0,51.0,30.05,SSW,203,1.0,7.0,82,0.00,,,0.00,weatherlink.com 1.10,2013-03-28 17:07:00,
2013-03-28 10:22:00,55.3,50.0,30.06,SE,130,3.0,6.0,81,0.00,,,0.00,weatherlink.com 1.10,2013-03-28 17:22:00,
2013-03-28 10:37:00,55.1,49.0,30.06,SW,221,5.0,12.0,81,0.00,,,0.00,weatherlink.com 1.10,2013-03-28 17:37:00,
2013-03-28 10:52:00,56.8,50.0,30.07,SE,126,7.0,9.0,79,0.00,,,0.00,weatherlink.com 1.10,2013-03-28 17:52:00,
2013-03-28 11:07:00,56.3,49.0,30.07,East,96,2.0,11.0,77,0.00,,,0.00,weatherlink.com 1.10,2013-03-28 18:07:00,
2013-03-28 11:22:00,56.8,50.0,30.07,SW,227,4.0,7.0,78,0.00,,,0.00,weatherlink.com 1.10,2013-03-28 18:22:00,
2013-03-28 11:37:00,57.9,50.0,30.07,NW,324,2.0,5.0,76,0.00,,,0.00,weatherlink.com 1.10,2013-03-28 18:37:00,
2013-03-28 11:53:00,59.2,50.0,30.07,WSW,253,1.0,7.0,72,0.00,,,0.00,weatherlink.com 1.10,2013-03-28 18:53:00,
2013-03-28 12:08:00,60.6,52.0,30.07,NE,42,1.0,8.0,72,0.00,,,0.00,weatherlink.com 1.10,2013-03-28 19:08:00,
2013-03-28 12:23:00,60.9,50.0,30.07,South,175,7.0,10.0,67,0.00,,,0.00,weatherlink.com 1.10,2013-03-28 19:23:00,
2013-03-28 12:38:00,61.4,52.0,30.07,SE,145,6.0,13.0,70,0.00,,,0.00,weatherlink.com 1.10,2013-03-28 19:38:00,
2013-03-28 12:53:00,60.6,49.0,30.07,SSE,165,4.0,13.0,66,0.00,,,0.00,weatherlink.com 1.10,2013-03-28 19:53:00,
2013-03-28 13:08:00,60.3,51.0,30.07,SSW,205,4.0,11.0,71,0.00,,,0.00,weatherlink.com 1.10,2013-03-28 20:08:00,
2013-03-28 13:23:00,60.0,49.0,30.07,ESE,121,2.0,10.0,68,0.00,,,0.00,weatherlink.com 1.10,2013-03-28 20:23:00,
2013-03-28 13:38:00,59.0,50.0,30.07,ESE,122,7.0,13.0,71,0.00,,,0.00,weatherlink.com 1.10,2013-03-28 20:38:00,
2013-03-28 13:53:00,59.1,50.0,30.08,SSW,205,7.0,9.0,71,0.00,,,0.00,weatherlink.com 1.10,2013-03-28 20:53:00,
2013-03-28 14:08:00,58.2,50.0,30.07,SE,141,3.0,7.0,75,0.00,,,0.00,weatherlink.com 1.10,2013-03-28 21:08:00,
2013-03-28 14:23:00,58.9,51.0,30.07,SE,143,5.0,8.0,74,0.00,,,0.00,weatherlink.com 1.10,2013-03-28 21:23:00,
2013-03-28 14:38:00,60.3,51.0,30.07,SSE,164,6.0,16.0,71,0.00,,,0.00,weatherlink.com 1.10,2013-03-28 21:38:00,
2013-03-28 14:53:00,61.1,52.0,30.07,South,174,3.0,10.0,71,0.00,,,0.00,weatherlink.com 1.10,2013-03-28 21:53:00,
2013-03-28 15:08:00,60.0,51.0,30.06,East,98,3.0,10.0,71,0.00,,,0.00,weatherlink.com 1.10,2013-03-28 22:08:00,
2013-03-28 15:24:00,59.8,51.0,30.06,South,185,4.0,6.0,72,0.00,,,0.00,weatherlink.com 1.10,2013-03-28 22:24:00,
2013-03-28 15:38:00,60.3,52.0,30.06,SW,215,3.0,5.0,74,0.00,,,0.00,weatherlink.com 1.10,2013-03-28 22:38:00,
2013-03-28 15:53:00,59.7,51.0,30.07,ESE,104,3.0,8.0,72,0.00,,,0.00,weatherlink.com 1.10,2013-03-28 22:53:00,
2013-03-28 16:08:00,58.2,52.0,30.07,SSW,195,6.0,9.0,79,0.00,,,0.00,weatherlink.com 1.10,2013-03-28 23:08:00,
2013-03-28 16:23:00,57.4,53.0,30.07,SE,136,5.0,6.0,84,0.00,,,0.00,weatherlink.com 1.10,2013-03-28 23:23:00,
2013-03-28 16:38:00,57.6,53.0,30.07,SSW,198,2.0,6.0,84,0.00,,,0.00,weatherlink.com 1.10,2013-03-28 23:38:00,
2013-03-28 16:53:00,59.0,53.0,30.07,South,180,1.0,3.0,80,0.00,,,0.00,weatherlink.com 1.10,2013-03-28 23:53:00,
2013-03-28 17:08:00,58.5,53.0,30.07,SE,142,1.0,4.0,81,0.00,,,0.00,weatherlink.com 1.10,2013-03-29 00:08:00,
2013-03-28 17:23:00,58.7,53.0,30.07,WSW,244,1.0,4.0,81,0.00,,,0.00,weatherlink.com 1.10,2013-03-29 00:23:00,
2013-03-28 17:38:00,59.3,53.0,30.06,ESE,106,1.0,6.0,80,0.00,,,0.00,weatherlink.com 1.10,2013-03-29 00:38:00,
2013-03-28 17:53:00,58.9,52.0,30.06,ESE,105,2.0,5.0,79,0.00,,,0.00,weatherlink.com 1.10,2013-03-29 00:53:00,
2013-03-28 18:08:00,58.9,53.0,30.06,SSE,152,2.0,4.0,80,0.00,,,0.00,weatherlink.com 1.10,2013-03-29 01:08:00,
2013-03-28 18:23:00,59.3,54.0,30.06,SSW,198,2.0,2.0,81,0.00,,,0.00,weatherlink.com 1.10,2013-03-29 01:23:00,
2013-03-28 18:38:00,59.0,53.0,30.06,SE,140,2.0,4.0,81,0.00,,,0.00,weatherlink.com 1.10,2013-03-29 01:38:00,
2013-03-28 18:53:00,58.4,53.0,30.05,South,186,1.0,3.0,82,0.00,,,0.00,weatherlink.com 1.10,2013-03-29 01:53:00,
2013-03-28 19:08:00,58.1,53.0,30.06,South,184,0.0,2.0,83,0.00,,,0.00,weatherlink.com 1.10,2013-03-29 02:08:00,
2013-03-28 19:23:00,57.4,53.0,30.06,SSE,155,2.0,3.0,84,0.00,,,0.00,weatherlink.com 1.10,2013-03-29 02:23:00,
2013-03-28 19:38:00,56.9,53.0,30.06,SSE,148,0.0,2.0,85,0.00,,,0.00,weatherlink.com 1.10,2013-03-29 02:38:00,
2013-03-28 19:53:00,56.6,52.0,30.06,SSE,148,0.0,0.0,85,0.00,,,0.00,weatherlink.com 1.10,2013-03-29 02:53:00,
2013-03-28 20:08:00,55.4,52.0,30.06,ENE,61,2.0,4.0,88,0.00,,,0.00,weatherlink.com 1.10,2013-03-29 03:08:00,
2013-03-28 20:23:00,54.6,52.0,30.07,ENE,61,1.0,2.0,91,0.00,,,0.00,weatherlink.com 1.10,2013-03-29 03:23:00,
2013-03-28 20:38:00,54.7,52.0,30.07,ENE,67,3.0,4.0,90,0.00,,,0.00,weatherlink.com 1.10,2013-03-29 03:38:00,
2013-03-28 20:53:00,53.7,52.0,30.08,ENE,67,2.0,3.0,92,0.00,,,0.00,weatherlink.com 1.10,2013-03-29 03:53:00,
2013-03-28 21:08:00,53.8,51.0,30.08,NE,36,2.0,4.0,91,0.00,,,0.00,weatherlink.com 1.10,2013-03-29 04:08:00,
2013-03-28 21:23:00,53.6,51.0,30.09,NE,34,0.0,2.0,92,0.00,,,0.00,weatherlink.com 1.10,2013-03-29 04:23:00,
2013-03-28 21:38:00,53.5,52.0,30.09,NE,34,1.0,2.0,94,0.00,,,0.00,weatherlink.com 1.10,2013-03-29 04:38:00,
2013-03-28 21:53:00,52.4,51.0,30.09,ENE,58,1.0,4.0,94,0.00,,,0.00,weatherlink.com 1.10,2013-03-29 04:53:00,
2013-03-28 22:08:00,52.5,51.0,30.09,ENE,58,1.0,1.0,95,0.00,,,0.00,weatherlink.com 1.10,2013-03-29 05:08:00,
2013-03-28 22:23:00,52.0,50.0,30.10,ENE,58,3.0,3.0,94,0.00,,,0.00,weatherlink.com 1.10,2013-03-29 05:23:00,
2013-03-28 22:38:00,51.7,50.0,30.10,ENE,61,0.0,2.0,95,0.00,,,0.00,weatherlink.com 1.10,2013-03-29 05:38:00,
2013-03-28 23:08:00,52.1,51.0,30.09,ENE,68,1.0,2.0,97,0.00,,,0.00,weatherlink.com 1.10,2013-03-29 06:08:00,
2013-03-28 23:09:00,52.1,51.0,30.09,ENE,76,2.0,2.0,97,0.00,,,0.00,weatherlink.com 1.10,2013-03-29 06:09:00,
2013-03-28 23:24:00,52.1,51.0,30.09,SE,134,0.0,1.0,97,0.00,,,0.00,weatherlink.com 1.10,2013-03-29 06:24:00,
2013-03-28 23:39:00,52.0,51.0,30.09,SSW,198,0.0,2.0,97,0.00,,,0.00,weatherlink.com 1.10,2013-03-29 06:39:00,
2013-03-28 23:54:00,51.9,51.0,30.09,WSW,243,1.0,3.0,98,0.00,,,0.00,weatherlink.com 1.10,2013-03-29 06:54:00,